Time;durP1;ratioP1;P1;durP2;ratioP2;P2;SDS_P1;SDS_P2;PMS_P1;PMS_P2;Temp;Humidity;BMP_temperature;BMP_pressure;BME280_temperature;BME280_humidity;BME280_pressure;Samples;Min_cycle;Max_cycle;Signal;HPM_P1;HPM_P2
2022/11/30 03:29:00;;;;;;;10.93;7.13;;;12.80;68.30;;;;;;5649459;23;20061;-78
2022/11/30 03:31:25;;;;;;;9.65;6.22;;;12.80;68.00;;;;;;4879522;29;20091;-76
2022/11/30 03:33:51;;;;;;;12.77;5.95;;;12.80;68.90;;;;;;4881610;29;20053;-78
2022/11/30 03:36:17;;;;;;;22.35;7.57;;;12.80;69.00;;;;;;4881512;29;20049;-75
2022/11/30 03:38:42;;;;;;;13.35;6.18;;;12.80;69.00;;;;;;4881677;29;20372;-77
2022/11/30 03:41:15;;;;;;;24.38;8.00;;;12.70;68.80;;;;;;4881149;29;20063;-77
2022/11/30 03:43:44;;;;;;;13.32;6.40;;;12.70;68.50;;;;;;4881362;29;20049;-76
2022/11/30 03:46:10;;;;;;;12.00;5.85;;;12.80;68.70;;;;;;4881230;29;20041;-75
2022/11/30 03:48:37;;;;;;;24.23;6.70;;;12.80;68.90;;;;;;4881712;29;20053;-77
2022/11/30 03:51:04;;;;;;;24.42;7.28;;;12.90;68.90;;;;;;4880231;29;20053;-75
2022/11/30 03:53:30;;;;;;;22.80;7.15;;;12.90;68.70;;;;;;4864651;29;20056;-77
2022/11/30 03:56:01;;;;;;;14.73;6.22;;;13.00;68.50;;;;;;4881192;29;20084;-75
2022/11/30 03:58:28;;;;;;;13.48;6.47;;;13.00;68.20;;;;;;4865223;29;20076;-78
2022/11/30 04:01:04;;;;;;;12.15;5.93;;;13.00;68.10;;;;;;4881403;29;20064;-75
2022/11/30 04:03:30;;;;;;;12.50;5.50;;;13.00;67.80;;;;;;4881297;29;20053;-75
2022/11/30 04:05:56;;;;;;;10.82;6.00;;;13.00;67.80;;;;;;4881019;29;20341;-74
2022/11/30 04:08:22;;;;;;;15.80;5.63;;;13.00;67.70;;;;;;4881300;29;20076;-76
2022/11/30 04:10:52;;;;;;;10.75;5.03;;;13.10;67.70;;;;;;4881456;29;20111;-75
2022/11/30 04:13:23;;;;;;;10.13;5.00;;;13.10;67.50;;;;;;4881372;29;20057;-78
2022/11/30 04:16:22;;;;;;;17.60;5.10;;;13.10;67.40;;;;;;4865907;29;20128;-78
2022/11/30 04:18:48;;;;;;;8.75;4.65;;;13.10;67.20;;;;;;4863531;29;20119;-78
2022/11/30 04:21:29;;;;;;;16.80;5.65;;;13.10;67.10;;;;;;4849421;29;20144;-79
2022/11/30 04:24:06;;;;;;;12.52;4.72;;;13.10;67.40;;;;;;4861495;29;20053;-77
2022/11/30 04:26:32;;;;;;;14.85;4.63;;;13.10;67.80;;;;;;4880600;29;20084;-77
2022/11/30 04:28:58;;;;;;;10.32;4.13;;;13.10;68.10;;;;;;4880186;29;20127;-78
2022/11/30 04:31:26;;;;;;;7.10;3.95;;;13.20;68.20;;;;;;4848687;29;20084;-78
2022/11/30 04:33:54;;;;;;;9.90;3.30;;;13.40;68.20;;;;;;4880972;29;20045;-80
2022/11/30 04:36:20;;;;;;;12.27;3.50;;;13.60;68.10;;;;;;4864285;29;20087;-77
2022/11/30 04:38:47;;;;;;;13.68;2.90;;;13.80;68.00;;;;;;4879947;29;20081;-78
2022/11/30 04:41:13;;;;;;;10.63;3.20;;;14.00;67.90;;;;;;4880723;29;20437;-77
2022/11/30 04:43:39;;;;;;;7.55;3.70;;;14.20;67.80;;;;;;4864392;29;20052;-77
2022/11/30 04:46:05;;;;;;;11.48;3.05;;;14.30;67.80;;;;;;4863723;29;20442;-78
2022/11/30 04:48:32;;;;;;;8.77;3.10;;;14.40;67.80;;;;;;4864729;29;20099;-78
2022/11/30 04:51:06;;;;;;;14.30;2.97;;;14.50;67.90;;;;;;4848365;29;20463;-75
2022/11/30 04:53:33;;;;;;;17.67;3.70;;;14.60;68.20;;;;;;4862724;29;20120;-78
2022/11/30 04:56:02;;;;;;;10.77;3.00;;;14.70;67.60;;;;;;4877233;29;20040;-77
2022/11/30 04:58:28;;;;;;;9.25;3.08;;;14.70;67.60;;;;;;4883832;29;20049;-78
2022/11/30 05:00:54;;;;;;;10.25;3.40;;;14.80;67.70;;;;;;4868003;29;20057;-79
2022/11/30 05:03:20;;;;;;;22.55;3.85;;;14.90;68.00;;;;;;4883759;29;20053;-78
2022/11/30 05:05:45;;;;;;;15.80;2.88;;;15.00;68.00;;;;;;4883940;29;20043;-78
2022/11/30 05:08:11;;;;;;;12.80;2.65;;;15.00;67.90;;;;;;4882900;29;20071;-79
2022/11/30 05:10:40;;;;;;;13.52;3.95;;;15.20;67.90;;;;;;4851621;29;20055;-77
2022/11/30 05:13:10;;;;;;;13.57;2.50;;;15.20;67.80;;;;;;4867183;29;20144;-80
2022/11/30 05:15:35;;;;;;;11.55;2.78;;;15.30;67.70;;;;;;4883621;29;20368;-79
2022/11/30 05:18:01;;;;;;;10.10;2.50;;;15.40;67.90;;;;;;4867120;29;20048;-78
2022/11/30 05:20:28;;;;;;;11.02;2.03;;;15.40;67.90;;;;;;4883776;29;20045;-78
2022/11/30 05:22:54;;;;;;;9.75;2.92;;;15.50;67.90;;;;;;4852647;29;20057;-77
2022/11/30 05:25:19;;;;;;;16.15;2.70;;;15.50;68.00;;;;;;4883119;29;20045;-80
2022/11/30 05:27:48;;;;;;;10.73;3.03;;;15.60;68.30;;;;;;4867625;29;20467;-79
2022/11/30 05:30:14;;;;;;;13.23;2.50;;;15.60;68.30;;;;;;4866608;29;20061;-79
2022/11/30 05:32:55;;;;;;;6.43;2.47;;;15.60;68.60;;;;;;4883660;29;20040;-79
2022/11/30 05:35:21;;;;;;;11.25;2.75;;;15.60;68.90;;;;;;4883568;29;20122;-79
2022/11/30 05:37:46;;;;;;;9.88;2.03;;;15.60;68.90;;;;;;4851936;29;20053;-79
2022/11/30 05:40:12;;;;;;;6.47;2.60;;;15.60;69.00;;;;;;4851445;29;20132;-78
2022/11/30 05:42:40;;;;;;;12.57;2.88;;;15.70;68.90;;;;;;4883100;29;20417;-80
2022/11/30 05:45:09;;;;;;;7.18;2.60;;;15.70;68.90;;;;;;4844039;29;20132;-81
2022/11/30 05:48:30;;;;;;;10.77;1.88;;;15.70;69.10;;;;;;4829220;29;20061;-78
2022/11/30 05:51:11;;;;;;;14.00;2.30;;;15.70;69.40;;;;;;4844043;29;20056;-78
2022/11/30 05:53:40;;;;;;;15.02;3.45;;;15.70;69.20;;;;;;4829224;29;20046;-76
2022/11/30 05:56:10;;;;;;;12.13;2.67;;;15.60;69.10;;;;;;4843463;29;20058;-76
2022/11/30 05:58:38;;;;;;;15.75;2.78;;;15.50;69.20;;;;;;4828600;29;20050;-79
2022/11/30 06:01:18;;;;;;;11.70;2.97;;;15.50;69.40;;;;;;4828917;29;20081;-78
2022/11/30 06:04:05;;;;;;;12.43;3.15;;;15.40;69.50;;;;;;4827809;29;20046;-78
2022/11/30 06:06:44;;;;;;;12.52;2.85;;;15.30;69.60;;;;;;4841974;29;20107;-80
2022/11/30 06:09:20;;;;;;;13.77;2.88;;;15.20;69.90;;;;;;4824496;29;20380;-79
2022/11/30 06:11:57;;;;;;;9.27;3.17;;;15.20;70.10;;;;;;4827284;29;20054;-77
2022/11/30 06:14:33;;;;;;;11.63;2.55;;;15.20;70.30;;;;;;4812306;29;20478;-79
2022/11/30 06:17:07;;;;;;;16.00;2.90;;;15.10;70.50;;;;;;4825719;29;20053;-78
2022/11/30 06:19:59;;;;;;;14.35;2.80;;;15.10;70.90;;;;;;4813282;29;20058;-80
2022/11/30 06:22:25;;;;;;;9.40;2.97;;;15.00;71.10;;;;;;4843350;29;20058;-78
2022/11/30 06:24:51;;;;;;;9.43;2.63;;;14.90;71.20;;;;;;4843615;29;20061;-77
2022/11/30 06:27:22;;;;;;;8.52;2.45;;;14.90;71.30;;;;;;4843326;29;20126;-78
2022/11/30 06:30:02;;;;;;;12.57;2.97;;;14.90;71.50;;;;;;4812826;29;20149;-79
2022/11/30 06:32:51;;;;;;;11.82;2.80;;;14.80;70.70;;;;;;4815402;29;20050;-79
2022/11/30 06:35:18;;;;;;;9.98;3.08;;;14.80;71.20;;;;;;4845862;29;20083;-74
2022/11/30 06:37:44;;;;;;;9.75;5.60;;;14.80;71.10;;;;;;4882600;29;20048;-77
2022/11/30 06:40:16;;;;;;;12.90;6.28;;;14.80;69.00;;;;;;4866733;29;20053;-79
2022/11/30 06:42:42;;;;;;;10.90;6.00;;;14.80;66.60;;;;;;4882034;29;20045;-77
2022/11/30 06:45:08;;;;;;;9.70;6.35;;;14.70;65.10;;;;;;4849880;29;20056;-76
2022/11/30 06:47:36;;;;;;;9.82;5.75;;;14.70;65.10;;;;;;4864310;29;20052;-83
2022/11/30 06:50:14;;;;;;;15.60;6.28;;;14.60;64.90;;;;;;4881589;29;20097;-77
2022/11/30 06:52:46;;;;;;;13.20;5.00;;;14.60;64.90;;;;;;4881446;29;20045;-78
2022/11/30 06:55:12;;;;;;;20.52;7.00;;;14.60;64.90;;;;;;4865816;29;20443;-76
2022/11/30 06:57:37;;;;;;;19.55;5.68;;;14.60;65.60;;;;;;4881893;29;20069;-77
2022/11/30 07:00:04;;;;;;;16.73;4.75;;;14.70;65.90;;;;;;4881966;29;20041;-77
2022/11/30 07:02:29;;;;;;;18.75;5.75;;;14.70;66.00;;;;;;4881157;29;20049;-77
2022/11/30 07:04:55;;;;;;;17.30;4.68;;;14.90;66.20;;;;;;4864728;29;20104;-76
2022/11/30 07:07:22;;;;;;;15.13;5.25;;;14.90;66.40;;;;;;4881707;29;20057;-77
2022/11/30 07:09:49;;;;;;;15.98;4.70;;;15.00;66.00;;;;;;4881726;29;20063;-78
2022/11/30 07:12:15;;;;;;;17.88;4.50;;;15.00;65.90;;;;;;4900317;29;20055;-76
2022/11/30 07:14:40;;;;;;;17.00;5.25;;;15.00;66.10;;;;;;4900544;29;20048;-79
2022/11/30 07:17:06;;;;;;;12.77;3.97;;;15.10;66.30;;;;;;4899916;29;20048;-77
2022/11/30 07:19:35;;;;;;;10.70;3.90;;;15.00;66.30;;;;;;4894169;29;20056;-75
2022/11/30 07:22:03;;;;;;;19.10;4.55;;;15.00;66.50;;;;;;4865103;29;20063;-78
2022/11/30 07:27:14;;;;;;;10.13;3.28;;;15.10;66.60;;;;;;4879989;29;20113;-79
2022/11/30 07:29:39;;;;;;;8.65;3.47;;;15.20;66.60;;;;;;4849086;29;20053;-79
2022/11/30 07:32:11;;;;;;;10.05;2.97;;;15.20;66.70;;;;;;4850416;29;20132;-79
2022/11/30 07:34:37;;;;;;;15.52;3.50;;;15.20;66.90;;;;;;4880683;29;20388;-78
2022/11/30 07:37:03;;;;;;;19.92;4.07;;;15.30;66.90;;;;;;4881483;29;20053;-77
2022/11/30 07:39:28;;;;;;;7.68;3.05;;;15.40;66.90;;;;;;4864748;29;20472;-78
2022/11/30 07:41:54;;;;;;;12.48;3.05;;;15.50;66.90;;;;;;4881677;29;20063;-77
2022/11/30 07:44:20;;;;;;;12.32;3.45;;;15.60;66.90;;;;;;4849702;29;20067;-80
2022/11/30 07:46:45;;;;;;;18.08;3.58;;;15.70;66.80;;;;;;4864831;29;20101;-78
2022/11/30 07:49:11;;;;;;;18.42;3.10;;;15.80;66.70;;;;;;4849517;29;20045;-78
2022/11/30 07:51:37;;;;;;;12.95;2.65;;;15.80;66.70;;;;;;4880609;29;20417;-79
2022/11/30 07:54:03;;;;;;;14.18;2.88;;;15.80;66.70;;;;;;4864843;29;20049;-78
2022/11/30 07:56:28;;;;;;;9.45;3.35;;;15.80;66.60;;;;;;4864141;29;20071;-78
2022/11/30 07:59:00;;;;;;;17.55;2.90;;;15.80;66.90;;;;;;4881423;29;20145;-81
2022/11/30 08:01:33;;;;;;;11.38;2.97;;;15.90;66.90;;;;;;4880387;29;20433;-78
2022/11/30 08:03:59;;;;;;;17.83;3.50;;;16.00;66.90;;;;;;4880770;29;20528;-81
2022/11/30 08:06:29;;;;;;;12.68;2.90;;;15.90;66.90;;;;;;4880850;29;20093;-77
2022/11/30 08:14:24;;;;;;;8.90;2.90;;;15.90;67.20;;;;;;4849302;29;20462;-80
2022/11/30 08:16:49;;;;;;;16.63;4.13;;;15.90;67.60;;;;;;4793922;29;20054;-80
2022/11/30 08:23:11;;;;;;;8.57;2.80;;;15.90;67.80;;;;;;4877853;29;20049;-78
2022/11/30 08:30:14;;;;;;;8.18;4.00;;;15.70;67.80;;;;;;4875367;29;20049;-79
2022/11/30 08:33:51;;;;;;;;;;;;;;;;;;;;;
2022/11/30 08:36:39;;;;;;;8.20;6.28;;;15.60;65.20;;;;;;4801272;29;20061;-79
2022/11/30 08:46:58;;;;;;;7.82;5.95;;;15.30;62.40;;;;;;4754901;30;20510;-80
2022/11/30 08:49:55;;;;;;;10.63;6.60;;;15.10;62.40;;;;;;4790540;30;20055;-79
2022/11/30 08:53:01;;;;;;;;;;;;;;;;;;;;;
2022/11/30 09:06:30;;;;;;;8.63;5.47;;;14.80;63.90;;;;;;4758625;30;20491;-77
2022/11/30 09:09:05;;;;;;;9.48;5.60;;;14.70;64.70;;;;;;4746245;30;20422;-81
2022/11/30 09:12:58;;;;;;;9.15;5.95;;;14.70;64.90;;;;;;4760350;30;20063;-78
2022/11/30 09:19:40;;;;;;;;;;;;;;;;;;;;;
2022/11/30 09:37:58;;;;;;;6.82;4.20;;;14.50;67.00;;;;;;4879599;29;20112;-80
2022/11/30 09:40:26;;;;;;;8.02;5.07;;;14.40;67.10;;;;;;4858925;29;20059;-81
2022/11/30 09:43:44;;;;;;;7.57;6.53;;;14.40;67.30;;;;;;4866090;29;20045;-78
2022/11/30 09:46:10;;;;;;;10.68;6.70;;;14.50;67.00;;;;;;4882830;29;20076;-78
2022/11/30 09:49:00;;;;;;;8.18;6.82;;;14.40;66.70;;;;;;4866688;29;20421;-78
2022/11/30 09:51:45;;;;;;;8.32;5.68;;;14.30;66.90;;;;;;4862821;29;20073;-78
2022/11/30 09:54:35;;;;;;;10.05;5.70;;;14.20;67.20;;;;;;4859974;29;20037;-77
2022/11/30 09:57:28;;;;;;;10.80;6.80;;;14.10;67.70;;;;;;4882539;29;20125;-75
2022/11/30 09:59:57;;;;;;;12.68;8.93;;;14.00;67.60;;;;;;4883093;29;20092;-77
2022/11/30 10:02:30;;;;;;;11.77;7.13;;;13.90;68.00;;;;;;4866176;29;20135;-79
2022/11/30 10:04:56;;;;;;;8.23;5.68;;;13.80;68.50;;;;;;4882885;29;20173;-76
2022/11/30 10:07:45;;;;;;;9.77;6.88;;;13.70;68.90;;;;;;4883086;29;20056;-76
2022/11/30 10:10:28;;;;;;;8.25;5.72;;;13.50;69.30;;;;;;4864723;29;20092;-72
2022/11/30 10:13:13;;;;;;;8.30;5.90;;;13.40;69.70;;;;;;4866303;29;20131;-79
2022/11/30 10:16:05;;;;;;;8.68;5.82;;;13.30;70.00;;;;;;4882751;29;20068;-75
2022/11/30 10:18:33;;;;;;;10.82;6.88;;;13.30;70.20;;;;;;4861253;29;20068;-73
2022/11/30 10:21:20;;;;;;;8.90;6.30;;;13.30;70.40;;;;;;4882967;29;20089;-75
2022/11/30 10:23:51;;;;;;;8.55;5.22;;;13.20;70.50;;;;;;4882093;29;20068;-77
2022/11/30 10:26:35;;;;;;;13.30;6.35;;;13.10;70.50;;;;;;4881970;29;20049;-76
2022/11/30 10:29:19;;;;;;;9.60;6.40;;;13.10;70.80;;;;;;4882694;29;20063;-77
2022/11/30 10:31:52;;;;;;;8.80;5.88;;;13.00;71.10;;;;;;4864690;29;20448;-78
2022/11/30 10:34:24;;;;;;;12.00;7.43;;;13.10;71.20;;;;;;4865040;29;20057;-78
2022/11/30 10:37:16;;;;;;;15.98;10.07;;;13.10;71.10;;;;;;4882524;29;20425;-78
2022/11/30 10:40:04;;;;;;;14.80;11.48;;;13.20;70.90;;;;;;4880926;29;20055;-77
2022/11/30 10:42:51;;;;;;;15.15;9.38;;;13.20;70.60;;;;;;4881362;29;20053;-77
2022/11/30 10:45:20;;;;;;;13.75;9.60;;;13.20;70.60;;;;;;4879843;29;20045;-77
2022/11/30 10:48:11;;;;;;;14.25;9.65;;;13.20;70.60;;;;;;4879548;29;20084;-77
2022/11/30 10:50:38;;;;;;;14.00;9.10;;;13.10;70.60;;;;;;4882160;29;20356;-75
2022/11/30 10:53:05;;;;;;;18.90;12.93;;;13.10;70.70;;;;;;4881468;29;20064;-77
2022/11/30 10:55:41;;;;;;;21.75;14.55;;;13.10;70.50;;;;;;4882054;29;20463;-77
2022/11/30 10:58:32;;;;;;;20.75;14.65;;;13.20;69.70;;;;;;4882070;29;20060;-78
2022/11/30 11:01:27;;;;;;;22.05;15.90;;;13.30;69.00;;;;;;4881988;29;20125;-79
2022/11/30 11:04:06;;;;;;;22.95;17.05;;;13.30;66.50;;;;;;4882158;29;20482;-78
2022/11/30 11:06:32;;;;;;;23.80;17.35;;;13.20;66.00;;;;;;4849902;29;20052;-75
2022/11/30 11:09:33;;;;;;;26.38;16.02;;;13.10;66.00;;;;;;4880432;29;20061;-76
2022/11/30 11:12:13;;;;;;;21.88;14.30;;;13.00;69.10;;;;;;4862482;29;20076;-76
2022/11/30 11:14:39;;;;;;;21.40;14.57;;;13.30;68.00;;;;;;4881785;29;20360;-76
2022/11/30 11:17:21;;;;;;;19.35;12.52;;;13.60;67.70;;;;;;4881188;29;20049;-80
2022/11/30 11:19:48;;;;;;;23.48;14.07;;;13.80;67.60;;;;;;4882519;29;20097;-78
2022/11/30 11:22:22;;;;;;;19.20;13.63;;;14.00;67.20;;;;;;4865210;29;20113;-75
2022/11/30 11:24:50;;;;;;;20.75;13.43;;;14.10;66.90;;;;;;4881609;29;20055;-73
2022/11/30 11:27:24;;;;;;;19.52;13.65;;;14.20;66.80;;;;;;4881630;29;20127;-80
2022/11/30 11:30:01;;;;;;;24.05;13.50;;;14.30;66.70;;;;;;4881558;29;20086;-77
2022/11/30 11:32:29;;;;;;;26.60;13.23;;;14.30;67.50;;;;;;4881222;29;20065;-76
2022/11/30 11:34:56;;;;;;;19.77;12.45;;;14.30;66.90;;;;;;4864440;29;20053;-70
2022/11/30 11:37:32;;;;;;;28.20;13.80;;;14.30;66.70;;;;;;4881496;29;20048;-79
2022/11/30 11:40:11;;;;;;;26.05;14.43;;;14.30;67.70;;;;;;4881003;29;20064;-78
2022/11/30 11:42:57;;;;;;;32.75;14.73;;;14.30;67.90;;;;;;4864877;29;20121;-77
2022/11/30 11:45:29;;;;;;;34.70;14.18;;;14.30;68.30;;;;;;4881152;29;20204;-78
2022/11/30 11:48:04;;;;;;;27.17;13.05;;;14.30;68.20;;;;;;4881441;29;20071;-80
2022/11/30 11:50:32;;;;;;;28.30;12.88;;;14.30;68.20;;;;;;4865348;29;20076;-79
2022/11/30 11:53:14;;;;;;;23.23;13.10;;;14.20;68.10;;;;;;4881420;29;20402;-78
2022/11/30 11:55:44;;;;;;;21.85;12.23;;;14.30;68.20;;;;;;4864854;29;20053;-79
2022/11/30 11:58:18;;;;;;;24.05;12.23;;;14.20;68.20;;;;;;4880769;29;20109;-78
2022/11/30 12:00:47;;;;;;;23.63;11.98;;;14.20;68.20;;;;;;4864857;29;20053;-79
2022/11/30 12:03:55;;;;;;;22.38;12.57;;;14.20;68.30;;;;;;4882600;29;20049;-79
2022/11/30 12:06:22;;;;;;;20.40;11.55;;;14.20;68.30;;;;;;4868580;29;20067;-80
2022/11/30 12:09:17;;;;;;;21.67;11.63;;;14.10;68.30;;;;;;4885196;29;20041;-79
2022/11/30 12:11:47;;;;;;;19.13;11.68;;;14.10;68.40;;;;;;4874836;29;20069;-79
2022/11/30 12:14:16;;;;;;;18.50;11.25;;;14.10;68.40;;;;;;4884117;29;20049;-77
2022/11/30 12:16:55;;;;;;;18.40;10.85;;;14.10;68.50;;;;;;4884886;29;20057;-80
2022/11/30 12:19:31;;;;;;;20.42;11.65;;;14.10;68.60;;;;;;4885161;29;20049;-80
2022/11/30 12:22:27;;;;;;;22.95;11.27;;;14.10;68.80;;;;;;4885132;29;20048;-79
2022/11/30 12:25:03;;;;;;;16.60;9.15;;;14.10;69.20;;;;;;4885304;29;20049;-80
2022/11/30 12:27:35;;;;;;;14.88;8.63;;;14.30;69.10;;;;;;4884243;29;20397;-78
2022/11/30 12:30:08;;;;;;;17.55;8.73;;;14.40;69.60;;;;;;4884510;29;20045;-80
2022/11/30 12:33:09;;;;;;;11.82;7.57;;;14.50;68.80;;;;;;4884201;29;20109;-80
2022/11/30 12:35:38;;;;;;;13.20;6.90;;;14.70;68.70;;;;;;4884475;29;20049;-80
2022/11/30 12:38:13;;;;;;;13.65;7.35;;;14.80;68.60;;;;;;4884560;29;20080;-76
2022/11/30 12:40:57;;;;;;;15.63;7.35;;;14.80;68.50;;;;;;4884452;29;20449;-73
2022/11/30 12:43:50;;;;;;;10.98;7.13;;;14.90;68.50;;;;;;4883838;29;20048;-76
2022/11/30 12:46:43;;;;;;;13.63;6.60;;;14.90;68.50;;;;;;4884120;29;20471;-73
2022/11/30 12:49:14;;;;;;;11.90;5.80;;;15.00;68.70;;;;;;4867910;29;20053;-76
2022/11/30 12:51:57;;;;;;;12.05;5.85;;;15.00;68.70;;;;;;4883971;29;20060;-74
2022/11/30 12:54:26;;;;;;;11.55;6.20;;;15.00;68.80;;;;;;4884288;29;20208;-72
2022/11/30 12:57:36;;;;;;;13.98;7.57;;;15.00;69.10;;;;;;4884063;29;20452;-72
2022/11/30 13:00:21;;;;;;;19.00;7.97;;;15.10;69.30;;;;;;4883409;29;20057;-80
2022/11/30 13:03:02;;;;;;;16.95;7.30;;;15.10;69.30;;;;;;4867206;29;20112;-80
2022/11/30 13:05:40;;;;;;;16.00;7.38;;;15.20;69.50;;;;;;4884053;29;20041;-80
2022/11/30 13:08:43;;;;;;;17.95;7.35;;;15.20;69.50;;;;;;4883043;29;20048;-79
2022/11/30 13:11:37;;;;;;;13.47;7.60;;;15.20;69.60;;;;;;4883851;29;20361;-79
2022/11/30 13:14:10;;;;;;;19.80;8.30;;;15.20;69.90;;;;;;4858584;29;20304;-78
2022/11/30 13:16:37;;;;;;;16.58;7.28;;;15.20;70.80;;;;;;4867469;29;20085;-79
2022/11/30 13:19:18;;;;;;;16.08;7.47;;;15.10;70.60;;;;;;4883302;29;20049;-78
2022/11/30 13:21:52;;;;;;;18.55;7.68;;;15.10;70.80;;;;;;4883718;29;20041;-78
2022/11/30 13:24:31;;;;;;;10.77;5.88;;;15.10;71.10;;;;;;4884264;29;20072;-83
2022/11/30 13:26:56;;;;;;;22.23;7.07;;;15.10;71.40;;;;;;4882883;29;20078;-81
2022/11/30 13:29:53;;;;;;;16.20;6.10;;;15.10;71.20;;;;;;4851546;29;20419;-77
2022/11/30 13:32:18;;;;;;;16.92;7.85;;;15.10;71.20;;;;;;4882785;29;20112;-78
2022/11/30 13:34:44;;;;;;;14.88;9.48;;;15.00;70.90;;;;;;4882662;29;20472;-78
2022/11/30 13:37:21;;;;;;;21.85;10.30;;;15.00;70.30;;;;;;4882713;29;20076;-75
2022/11/30 13:39:54;;;;;;;16.98;9.50;;;14.90;69.70;;;;;;4882028;29;20551;-75
2022/11/30 13:42:43;;;;;;;20.27;12.10;;;14.90;69.90;;;;;;4882651;29;20112;-75
2022/11/30 13:45:12;;;;;;;20.88;13.85;;;14.90;69.50;;;;;;4880144;29;20048;-75
2022/11/30 13:47:49;;;;;;;23.02;15.60;;;14.90;69.10;;;;;;4882168;29;20185;-74
2022/11/30 13:50:24;;;;;;;22.63;16.67;;;14.90;68.60;;;;;;4880657;29;20645;-74
2022/11/30 13:53:06;;;;;;;23.35;16.55;;;14.90;67.90;;;;;;4882261;29;20049;-78
2022/11/30 13:55:35;;;;;;;25.73;18.70;;;14.90;67.40;;;;;;4880167;29;20041;-74
2022/11/30 13:58:03;;;;;;;28.88;21.10;;;14.90;67.10;;;;;;4882172;29;20045;-75
2022/11/30 14:00:29;;;;;;;27.10;20.80;;;14.90;66.70;;;;;;4881720;29;20479;-72
2022/11/30 14:03:20;;;;;;;25.35;18.33;;;14.80;66.40;;;;;;4881913;29;20084;-73
2022/11/30 14:05:46;;;;;;;21.65;15.65;;;14.70;66.10;;;;;;4874785;29;20096;-77
2022/11/30 14:08:17;;;;;;;23.25;16.65;;;14.50;66.90;;;;;;4865904;29;20060;-76
2022/11/30 14:10:53;;;;;;;21.88;15.73;;;14.30;67.10;;;;;;4882154;29;20468;-75
2022/11/30 14:13:21;;;;;;;23.17;17.02;;;14.10;67.90;;;;;;4864768;29;20073;-76
2022/11/30 14:15:46;;;;;;;22.33;15.57;;;13.90;68.30;;;;;;4850472;29;20479;-79
2022/11/30 14:18:18;;;;;;;23.98;16.70;;;13.80;68.90;;;;;;4881965;29;20037;-74
2022/11/30 14:20:44;;;;;;;24.92;15.70;;;13.60;69.50;;;;;;4882223;29;20365;-75
2022/11/30 14:23:18;;;;;;;26.30;17.30;;;13.50;70.00;;;;;;4882069;29;20048;-77
2022/11/30 14:25:53;;;;;;;24.88;17.35;;;13.50;70.40;;;;;;4882118;29;20053;-75
2022/11/30 14:28:28;;;;;;;29.30;17.17;;;13.50;70.10;;;;;;4882124;29;20049;-77
2022/11/30 14:30:54;;;;;;;33.25;20.02;;;13.50;69.90;;;;;;4882171;29;20361;-78
2022/11/30 14:33:39;;;;;;;32.70;17.65;;;13.30;70.20;;;;;;4882720;29;20498;-76
2022/11/30 14:36:07;;;;;;;29.00;17.35;;;13.60;71.30;;;;;;4882362;29;20350;-79
2022/11/30 14:38:39;;;;;;;23.30;14.30;;;14.00;70.50;;;;;;4882618;29;20362;-83
2022/11/30 14:41:05;;;;;;;29.48;13.98;;;14.30;69.80;;;;;;4881990;29;20065;-79
2022/11/30 14:43:31;;;;;;;24.50;13.32;;;14.60;69.30;;;;;;4882308;29;20060;-77
2022/11/30 14:45:59;;;;;;;20.77;12.13;;;14.80;68.90;;;;;;4849760;29;20456;-82
2022/11/30 14:48:25;;;;;;;19.70;12.82;;;14.90;68.70;;;;;;4881692;29;20056;-81
2022/11/30 14:50:53;;;;;;;21.10;13.98;;;15.00;68.90;;;;;;4882078;29;20133;-75
2022/11/30 14:53:42;;;;;;;22.88;13.10;;;15.10;68.90;;;;;;4865520;29;20461;-79
2022/11/30 14:56:31;;;;;;;21.30;13.60;;;15.20;69.10;;;;;;4865478;29;20069;-78
2022/11/30 14:59:31;;;;;;;17.98;12.95;;;15.40;69.30;;;;;;4865166;29;20049;-77
2022/11/30 15:02:00;;;;;;;19.23;11.35;;;15.30;69.70;;;;;;4849901;29;20463;-77
2022/11/30 15:04:26;;;;;;;17.90;11.48;;;15.30;69.60;;;;;;4882128;29;20135;-76
2022/11/30 15:06:54;;;;;;;18.23;10.68;;;15.30;69.90;;;;;;4882085;29;20412;-76
2022/11/30 15:09:28;;;;;;;22.38;11.05;;;15.40;70.30;;;;;;4881735;29;20048;-78
2022/11/30 15:11:54;;;;;;;18.00;10.85;;;15.40;70.40;;;;;;4881829;29;20136;-77
2022/11/30 15:14:20;;;;;;;15.32;10.02;;;15.40;70.40;;;;;;4864507;29;20048;-78
2022/11/30 15:16:55;;;;;;;15.25;9.80;;;15.40;70.60;;;;;;4881841;29;20041;-79
2022/11/30 15:19:21;;;;;;;15.40;8.98;;;15.50;70.70;;;;;;4881956;29;20209;-79
2022/11/30 15:21:48;;;;;;;12.73;8.85;;;15.60;70.50;;;;;;4882278;29;20433;-80
2022/11/30 15:24:13;;;;;;;14.93;8.85;;;15.70;70.30;;;;;;4880694;29;20060;-79
2022/11/30 15:26:56;;;;;;;13.98;8.32;;;15.70;70.10;;;;;;4880484;29;20404;-78
2022/11/30 15:29:35;;;;;;;14.43;7.55;;;15.80;70.10;;;;;;4864860;29;20056;-80
2022/11/30 15:32:06;;;;;;;13.80;7.88;;;15.80;70.00;;;;;;4864815;29;20515;-79
2022/11/30 15:34:41;;;;;;;12.73;7.25;;;15.80;70.00;;;;;;4881117;29;20120;-78
2022/11/30 15:37:12;;;;;;;16.23;7.47;;;15.70;69.80;;;;;;4880828;29;20072;-80
2022/11/30 15:39:43;;;;;;;15.93;9.23;;;15.80;69.80;;;;;;4849284;29;20124;-79
2022/11/30 15:42:20;;;;;;;14.05;7.70;;;15.50;67.10;;;;;;4849153;29;20361;-80
2022/11/30 15:44:47;;;;;;;12.82;9.30;;;15.40;69.90;;;;;;4879773;29;20099;-79
2022/11/30 15:47:31;;;;;;;14.50;8.18;;;15.40;69.80;;;;;;4848637;29;20041;-81
2022/11/30 15:49:58;;;;;;;12.68;7.72;;;15.40;69.70;;;;;;4849608;29;20059;-80
2022/11/30 15:52:26;;;;;;;11.98;7.70;;;15.40;69.80;;;;;;4864802;29;20041;-81
2022/11/30 15:54:58;;;;;;;13.45;7.28;;;15.40;69.80;;;;;;4864926;29;20075;-80
2022/11/30 15:57:45;;;;;;;12.18;6.82;;;15.40;69.90;;;;;;4865261;29;20033;-80
2022/11/30 16:00:33;;;;;;;9.23;6.13;;;15.50;69.90;;;;;;4864738;29;20369;-80
2022/11/30 16:07:20;;;;;;;10.48;6.65;;;15.50;69.80;;;;;;4880721;29;20059;-81
2022/11/30 16:09:46;;;;;;;15.80;5.90;;;15.50;69.90;;;;;;4864900;29;20033;-79
2022/11/30 16:23:33;;;;;;;8.90;5.57;;;15.40;70.30;;;;;;4751781;30;20051;-74
2022/11/30 16:25:59;;;;;;;11.23;5.38;;;15.40;70.50;;;;;;4760612;29;20051;-75
2022/11/30 16:29:04;;;;;;;;;;;;;;;;;;;;;
2022/11/30 16:31:50;;;;;;;15.93;11.48;;;15.40;70.10;;;;;;4878587;29;20049;-82
2022/11/30 16:34:51;;;;;;;;;;;;;;;;;;;;;
2022/11/30 16:53:18;;;;;;;17.65;8.48;;;15.20;71.70;;;;;;4771784;29;20551;-80
2022/11/30 16:55:49;;;;;;;18.17;9.05;;;15.10;72.10;;;;;;4720817;30;20505;-80
2022/11/30 16:58:15;;;;;;;19.15;8.93;;;15.10;71.60;;;;;;4793225;29;20055;-81
2022/11/30 17:00:41;;;;;;;19.85;8.70;;;15.10;71.60;;;;;;4883765;29;20052;-78
2022/11/30 17:03:22;;;;;;;27.73;8.35;;;15.10;71.60;;;;;;4867659;29;20092;-72
2022/11/30 17:05:48;;;;;;;23.08;8.65;;;15.10;71.70;;;;;;4883925;29;20397;-75
2022/11/30 17:08:14;;;;;;;20.30;8.52;;;15.10;71.60;;;;;;4883839;29;20152;-76
2022/11/30 17:10:41;;;;;;;17.33;8.10;;;15.00;71.60;;;;;;4884144;29;20057;-76
2022/11/30 17:13:12;;;;;;;21.02;8.95;;;15.00;71.80;;;;;;4883629;29;20441;-79
2022/11/30 17:15:38;;;;;;;24.58;8.20;;;15.00;71.90;;;;;;4883742;29;20057;-79
2022/11/30 17:18:03;;;;;;;23.73;7.75;;;15.00;72.00;;;;;;4852295;29;20055;-79
2022/11/30 17:20:29;;;;;;;19.60;7.50;;;15.00;71.90;;;;;;4883868;29;20516;-79
2022/11/30 17:22:55;;;;;;;19.65;8.82;;;15.00;71.80;;;;;;4883441;29;20081;-79
2022/11/30 17:25:22;;;;;;;19.08;8.25;;;14.90;71.70;;;;;;4866987;29;20080;-79
2022/11/30 17:27:49;;;;;;;21.45;8.88;;;14.90;71.50;;;;;;4883158;29;20096;-78
2022/11/30 17:30:17;;;;;;;16.73;9.00;;;14.90;71.50;;;;;;4851807;29;20057;-81
2022/11/30 17:32:43;;;;;;;18.75;8.70;;;14.90;71.50;;;;;;4867213;29;20096;-78
2022/11/30 17:35:09;;;;;;;17.15;9.02;;;14.80;71.40;;;;;;4851939;29;20088;-82
2022/11/30 17:37:35;;;;;;;18.80;8.30;;;14.80;71.30;;;;;;4883260;29;20049;-78
2022/11/30 17:40:00;;;;;;;23.15;8.93;;;14.80;71.20;;;;;;4867015;29;20057;-72
2022/11/30 18:05:45;;;;;;;21.48;13.02;;;14.50;70.00;;;;;;5110675;23;20072;-76
2022/11/30 18:08:10;;;;;;;33.50;24.45;;;14.40;70.40;;;;;;4882516;29;20052;-78
2022/11/30 18:10:39;;;;;;;42.55;28.20;;;14.50;67.70;;;;;;4866357;29;20161;-77
2022/11/30 18:13:05;;;;;;;36.90;26.38;;;14.50;63.80;;;;;;4881284;29;20060;-79
2022/11/30 18:15:31;;;;;;;38.58;27.83;;;14.30;62.90;;;;;;4865429;29;20049;-74
2022/11/30 18:18:00;;;;;;;43.78;29.80;;;14.10;62.60;;;;;;4882446;29;20490;-77
2022/11/30 18:20:27;;;;;;;50.92;27.70;;;13.80;63.20;;;;;;4882472;29;20044;-74
2022/11/30 18:22:52;;;;;;;46.70;28.30;;;13.60;64.60;;;;;;4882925;29;20421;-78
2022/11/30 18:25:18;;;;;;;41.15;27.20;;;13.60;65.70;;;;;;4882270;29;20053;-73
2022/11/30 18:27:44;;;;;;;39.42;26.40;;;13.70;67.00;;;;;;4882489;29;20161;-78
2022/11/30 18:30:10;;;;;;;37.30;24.58;;;13.70;67.90;;;;;;4882507;29;20061;-77
2022/11/30 18:32:36;;;;;;;35.65;23.48;;;13.70;68.50;;;;;;4882432;29;20042;-78